sensor_id;sensor_type;location;lat;lon;timestamp;P1;durP1;ratioP1;P2;durP2;ratioP2
10387;SDS011;5240;51.128;4.566;2023-12-20T00:02:17;14.57;;;3.25;;
10387;SDS011;5240;51.128;4.566;2023-12-20T00:04:44;10.27;;;3.15;;
10387;SDS011;5240;51.128;4.566;2023-12-20T00:07:11;8.52;;;3.65;;
10387;SDS011;5240;51.128;4.566;2023-12-20T00:09:38;10.60;;;3.33;;
10387;SDS011;5240;51.128;4.566;2023-12-20T00:12:06;10.20;;;3.13;;
10387;SDS011;5240;51.128;4.566;2023-12-20T00:14:34;13.98;;;3.60;;
10387;SDS011;5240;51.128;4.566;2023-12-20T00:17:02;12.52;;;3.25;;
10387;SDS011;5240;51.128;4.566;2023-12-20T00:19:29;10.18;;;3.17;;
10387;SDS011;5240;51.128;4.566;2023-12-20T00:21:56;10.50;;;2.92;;
10387;SDS011;5240;51.128;4.566;2023-12-20T00:24:24;12.60;;;3.20;;
10387;SDS011;5240;51.128;4.566;2023-12-20T00:26:51;14.18;;;3.20;;
10387;SDS011;5240;51.128;4.566;2023-12-20T00:29:19;12.48;;;2.80;;
10387;SDS011;5240;51.128;4.566;2023-12-20T00:31:47;10.73;;;2.78;;
10387;SDS011;5240;51.128;4.566;2023-12-20T00:34:15;14.82;;;3.13;;
10387;SDS011;5240;51.128;4.566;2023-12-20T00:36:42;10.55;;;3.10;;
10387;SDS011;5240;51.128;4.566;2023-12-20T00:39:09;10.88;;;3.00;;
10387;SDS011;5240;51.128;4.566;2023-12-20T00:41:36;12.57;;;2.67;;
10387;SDS011;5240;51.128;4.566;2023-12-20T00:44:04;12.63;;;3.17;;
10387;SDS011;5240;51.128;4.566;2023-12-20T00:46:30;11.38;;;2.83;;
10387;SDS011;5240;51.128;4.566;2023-12-20T00:48:59;8.25;;;2.63;;
10387;SDS011;5240;51.128;4.566;2023-12-20T00:51:26;13.73;;;3.30;;
10387;SDS011;5240;51.128;4.566;2023-12-20T00:53:53;11.13;;;3.05;;
10387;SDS011;5240;51.128;4.566;2023-12-20T00:56:20;15.77;;;3.53;;
10387;SDS011;5240;51.128;4.566;2023-12-20T00:58:48;13.27;;;3.50;;
10387;SDS011;5240;51.128;4.566;2023-12-20T01:01:15;10.85;;;3.63;;
10387;SDS011;5240;51.128;4.566;2023-12-20T01:03:42;11.80;;;3.90;;
10387;SDS011;5240;51.128;4.566;2023-12-20T01:06:11;11.82;;;4.07;;
10387;SDS011;5240;51.128;4.566;2023-12-20T01:08:38;21.38;;;5.05;;
10387;SDS011;5240;51.128;4.566;2023-12-20T01:11:05;17.15;;;5.07;;
10387;SDS011;5240;51.128;4.566;2023-12-20T01:13:32;13.57;;;4.95;;
10387;SDS011;5240;51.128;4.566;2023-12-20T01:16:00;14.82;;;4.70;;
10387;SDS011;5240;51.128;4.566;2023-12-20T01:18:27;10.82;;;4.65;;
10387;SDS011;5240;51.128;4.566;2023-12-20T01:20:55;15.57;;;4.80;;
10387;SDS011;5240;51.128;4.566;2023-12-20T01:23:23;12.52;;;4.57;;
10387;SDS011;5240;51.128;4.566;2023-12-20T01:25:51;13.65;;;4.38;;
10387;SDS011;5240;51.128;4.566;2023-12-20T01:28:19;12.07;;;4.45;;
10387;SDS011;5240;51.128;4.566;2023-12-20T01:30:46;12.88;;;5.07;;
10387;SDS011;5240;51.128;4.566;2023-12-20T01:33:13;17.73;;;5.22;;
10387;SDS011;5240;51.128;4.566;2023-12-20T01:35:40;15.48;;;4.65;;
10387;SDS011;5240;51.128;4.566;2023-12-20T01:38:08;13.57;;;4.35;;
10387;SDS011;5240;51.128;4.566;2023-12-20T01:40:37;16.15;;;5.15;;
10387;SDS011;5240;51.128;4.566;2023-12-20T01:43:06;14.85;;;4.20;;
10387;SDS011;5240;51.128;4.566;2023-12-20T01:45:33;11.07;;;4.80;;
10387;SDS011;5240;51.128;4.566;2023-12-20T01:48:01;11.95;;;4.57;;
10387;SDS011;5240;51.128;4.566;2023-12-20T01:50:31;12.82;;;5.05;;
10387;SDS011;5240;51.128;4.566;2023-12-20T01:52:59;11.50;;;4.55;;
10387;SDS011;5240;51.128;4.566;2023-12-20T01:55:27;15.18;;;5.22;;
10387;SDS011;5240;51.128;4.566;2023-12-20T01:57:57;15.13;;;5.07;;
10387;SDS011;5240;51.128;4.566;2023-12-20T02:00:26;10.98;;;4.60;;
10387;SDS011;5240;51.128;4.566;2023-12-20T02:02:53;15.07;;;5.03;;
10387;SDS011;5240;51.128;4.566;2023-12-20T02:05:21;16.63;;;4.65;;
10387;SDS011;5240;51.128;4.566;2023-12-20T02:07:48;15.20;;;5.72;;
10387;SDS011;5240;51.128;4.566;2023-12-20T02:10:15;15.77;;;4.88;;
10387;SDS011;5240;51.128;4.566;2023-12-20T02:12:43;14.68;;;4.25;;
10387;SDS011;5240;51.128;4.566;2023-12-20T02:15:11;13.48;;;4.82;;
10387;SDS011;5240;51.128;4.566;2023-12-20T02:17:39;13.75;;;3.92;;
10387;SDS011;5240;51.128;4.566;2023-12-20T02:20:06;15.63;;;4.07;;
10387;SDS011;5240;51.128;4.566;2023-12-20T02:22:35;12.45;;;3.97;;
10387;SDS011;5240;51.128;4.566;2023-12-20T02:25:03;14.70;;;4.25;;
10387;SDS011;5240;51.128;4.566;2023-12-20T02:27:30;15.80;;;4.32;;
10387;SDS011;5240;51.128;4.566;2023-12-20T02:29:57;16.02;;;4.43;;
10387;SDS011;5240;51.128;4.566;2023-12-20T02:32:25;19.83;;;4.15;;
10387;SDS011;5240;51.128;4.566;2023-12-20T02:34:52;12.43;;;4.03;;
10387;SDS011;5240;51.128;4.566;2023-12-20T02:37:19;13.95;;;3.83;;
10387;SDS011;5240;51.128;4.566;2023-12-20T02:39:48;13.80;;;3.63;;
10387;SDS011;5240;51.128;4.566;2023-12-20T02:42:15;14.07;;;3.65;;
10387;SDS011;5240;51.128;4.566;2023-12-20T02:44:42;12.18;;;4.22;;
10387;SDS011;5240;51.128;4.566;2023-12-20T02:47:10;15.20;;;4.32;;
10387;SDS011;5240;51.128;4.566;2023-12-20T02:49:37;11.90;;;3.90;;
10387;SDS011;5240;51.128;4.566;2023-12-20T02:52:04;15.35;;;4.22;;
10387;SDS011;5240;51.128;4.566;2023-12-20T02:54:32;16.17;;;3.53;;
10387;SDS011;5240;51.128;4.566;2023-12-20T02:57:00;13.68;;;4.28;;
10387;SDS011;5240;51.128;4.566;2023-12-20T02:59:28;13.30;;;3.70;;
10387;SDS011;5240;51.128;4.566;2023-12-20T03:01:55;13.50;;;3.60;;
10387;SDS011;5240;51.128;4.566;2023-12-20T03:04:22;16.55;;;4.10;;
10387;SDS011;5240;51.128;4.566;2023-12-20T03:06:49;14.63;;;4.25;;
10387;SDS011;5240;51.128;4.566;2023-12-20T03:09:16;12.40;;;4.05;;
10387;SDS011;5240;51.128;4.566;2023-12-20T03:11:44;11.43;;;3.65;;
10387;SDS011;5240;51.128;4.566;2023-12-20T03:14:12;13.13;;;3.88;;
10387;SDS011;5240;51.128;4.566;2023-12-20T03:16:39;16.38;;;4.03;;
10387;SDS011;5240;51.128;4.566;2023-12-20T03:19:07;13.05;;;4.05;;
10387;SDS011;5240;51.128;4.566;2023-12-20T03:21:34;12.98;;;4.10;;
10387;SDS011;5240;51.128;4.566;2023-12-20T03:24:01;14.07;;;4.22;;
10387;SDS011;5240;51.128;4.566;2023-12-20T03:26:28;13.25;;;3.63;;
10387;SDS011;5240;51.128;4.566;2023-12-20T03:28:55;19.48;;;3.75;;
10387;SDS011;5240;51.128;4.566;2023-12-20T03:31:24;14.20;;;4.72;;
10387;SDS011;5240;51.128;4.566;2023-12-20T03:33:51;19.40;;;4.32;;
10387;SDS011;5240;51.128;4.566;2023-12-20T03:36:18;16.02;;;4.28;;
10387;SDS011;5240;51.128;4.566;2023-12-20T03:38:46;16.65;;;4.50;;
10387;SDS011;5240;51.128;4.566;2023-12-20T03:41:13;16.60;;;4.13;;
10387;SDS011;5240;51.128;4.566;2023-12-20T03:43:40;13.27;;;3.85;;
10387;SDS011;5240;51.128;4.566;2023-12-20T03:46:08;14.18;;;4.15;;
10387;SDS011;5240;51.128;4.566;2023-12-20T03:48:36;11.75;;;3.67;;
10387;SDS011;5240;51.128;4.566;2023-12-20T03:51:04;14.00;;;4.10;;
10387;SDS011;5240;51.128;4.566;2023-12-20T03:53:31;17.58;;;4.50;;
10387;SDS011;5240;51.128;4.566;2023-12-20T03:55:58;20.77;;;6.68;;
10387;SDS011;5240;51.128;4.566;2023-12-20T03:58:26;19.23;;;6.15;;
10387;SDS011;5240;51.128;4.566;2023-12-20T04:00:53;16.80;;;6.07;;
10387;SDS011;5240;51.128;4.566;2023-12-20T04:03:20;21.48;;;6.57;;
10387;SDS011;5240;51.128;4.566;2023-12-20T04:05:49;13.65;;;6.75;;
10387;SDS011;5240;51.128;4.566;2023-12-20T04:08:16;22.45;;;7.63;;
10387;SDS011;5240;51.128;4.566;2023-12-20T04:10:43;16.42;;;6.22;;
10387;SDS011;5240;51.128;4.566;2023-12-20T04:13:10;19.55;;;6.60;;
10387;SDS011;5240;51.128;4.566;2023-12-20T04:15:38;18.33;;;5.82;;
10387;SDS011;5240;51.128;4.566;2023-12-20T04:18:05;24.17;;;6.07;;
10387;SDS011;5240;51.128;4.566;2023-12-20T04:20:32;16.60;;;4.72;;
10387;SDS011;5240;51.128;4.566;2023-12-20T04:23:01;20.20;;;6.03;;
10387;SDS011;5240;51.128;4.566;2023-12-20T04:25:28;19.50;;;4.65;;
10387;SDS011;5240;51.128;4.566;2023-12-20T04:27:55;19.92;;;4.55;;
10387;SDS011;5240;51.128;4.566;2023-12-20T04:30:22;17.10;;;4.95;;
10387;SDS011;5240;51.128;4.566;2023-12-20T04:32:50;21.85;;;4.95;;
10387;SDS011;5240;51.128;4.566;2023-12-20T04:35:17;17.73;;;4.88;;
10387;SDS011;5240;51.128;4.566;2023-12-20T04:37:44;21.85;;;4.82;;
10387;SDS011;5240;51.128;4.566;2023-12-20T04:40:13;15.73;;;4.22;;
10387;SDS011;5240;51.128;4.566;2023-12-20T04:42:40;21.63;;;4.65;;
10387;SDS011;5240;51.128;4.566;2023-12-20T04:45:08;16.70;;;4.25;;
10387;SDS011;5240;51.128;4.566;2023-12-20T04:47:38;23.92;;;4.40;;
10387;SDS011;5240;51.128;4.566;2023-12-20T04:50:05;20.27;;;4.60;;
10387;SDS011;5240;51.128;4.566;2023-12-20T04:52:33;18.90;;;4.55;;
10387;SDS011;5240;51.128;4.566;2023-12-20T04:55:00;18.00;;;4.57;;
10387;SDS011;5240;51.128;4.566;2023-12-20T04:57:29;17.20;;;4.30;;
10387;SDS011;5240;51.128;4.566;2023-12-20T04:59:56;13.55;;;4.05;;
10387;SDS011;5240;51.128;4.566;2023-12-20T05:02:23;14.40;;;3.60;;
10387;SDS011;5240;51.128;4.566;2023-12-20T05:04:50;17.73;;;4.82;;
10387;SDS011;5240;51.128;4.566;2023-12-20T05:07:18;13.70;;;5.10;;
10387;SDS011;5240;51.128;4.566;2023-12-20T05:09:45;22.98;;;4.60;;
10387;SDS011;5240;51.128;4.566;2023-12-20T05:12:13;15.32;;;4.47;;
10387;SDS011;5240;51.128;4.566;2023-12-20T05:14:42;18.35;;;4.65;;
10387;SDS011;5240;51.128;4.566;2023-12-20T05:17:09;18.52;;;5.05;;
10387;SDS011;5240;51.128;4.566;2023-12-20T05:19:36;13.18;;;4.40;;
10387;SDS011;5240;51.128;4.566;2023-12-20T05:22:04;16.70;;;4.40;;
10387;SDS011;5240;51.128;4.566;2023-12-20T05:24:31;16.40;;;5.20;;
10387;SDS011;5240;51.128;4.566;2023-12-20T05:26:58;16.83;;;4.80;;
10387;SDS011;5240;51.128;4.566;2023-12-20T05:29:25;11.57;;;4.18;;
10387;SDS011;5240;51.128;4.566;2023-12-20T05:31:54;15.90;;;4.72;;
10387;SDS011;5240;51.128;4.566;2023-12-20T05:34:21;19.80;;;4.40;;
10387;SDS011;5240;51.128;4.566;2023-12-20T05:36:49;17.42;;;5.13;;
10387;SDS011;5240;51.128;4.566;2023-12-20T05:39:16;12.88;;;3.92;;
10387;SDS011;5240;51.128;4.566;2023-12-20T05:41:43;15.70;;;4.47;;
10387;SDS011;5240;51.128;4.566;2023-12-20T05:44:11;11.32;;;4.18;;
10387;SDS011;5240;51.128;4.566;2023-12-20T05:46:38;16.02;;;4.35;;
10387;SDS011;5240;51.128;4.566;2023-12-20T05:49:06;18.52;;;4.10;;
10387;SDS011;5240;51.128;4.566;2023-12-20T05:51:34;19.60;;;4.50;;
10387;SDS011;5240;51.128;4.566;2023-12-20T05:54:01;14.52;;;4.53;;
10387;SDS011;5240;51.128;4.566;2023-12-20T05:56:29;16.25;;;4.40;;
10387;SDS011;5240;51.128;4.566;2023-12-20T05:58:57;15.68;;;3.88;;
10387;SDS011;5240;51.128;4.566;2023-12-20T06:01:24;15.40;;;4.55;;
10387;SDS011;5240;51.128;4.566;2023-12-20T06:03:52;13.55;;;4.50;;
10387;SDS011;5240;51.128;4.566;2023-12-20T06:06:20;28.38;;;4.95;;
10387;SDS011;5240;51.128;4.566;2023-12-20T06:08:49;21.20;;;5.35;;
10387;SDS011;5240;51.128;4.566;2023-12-20T06:11:16;11.52;;;4.80;;
10387;SDS011;5240;51.128;4.566;2023-12-20T06:13:43;17.95;;;3.92;;
10387;SDS011;5240;51.128;4.566;2023-12-20T06:16:10;21.00;;;5.50;;
10387;SDS011;5240;51.128;4.566;2023-12-20T06:18:38;19.15;;;5.55;;
10387;SDS011;5240;51.128;4.566;2023-12-20T06:21:05;16.85;;;4.65;;
10387;SDS011;5240;51.128;4.566;2023-12-20T06:23:35;17.02;;;4.32;;
10387;SDS011;5240;51.128;4.566;2023-12-20T06:26:02;28.48;;;5.10;;
10387;SDS011;5240;51.128;4.566;2023-12-20T06:28:29;21.42;;;4.40;;
10387;SDS011;5240;51.128;4.566;2023-12-20T06:30:56;15.48;;;4.15;;
10387;SDS011;5240;51.128;4.566;2023-12-20T06:33:25;18.92;;;4.13;;
10387;SDS011;5240;51.128;4.566;2023-12-20T06:35:52;17.70;;;4.05;;
10387;SDS011;5240;51.128;4.566;2023-12-20T06:38:20;15.55;;;3.42;;
10387;SDS011;5240;51.128;4.566;2023-12-20T06:40:48;16.30;;;4.28;;
10387;SDS011;5240;51.128;4.566;2023-12-20T06:43:15;19.42;;;3.97;;
10387;SDS011;5240;51.128;4.566;2023-12-20T06:45:43;14.32;;;3.53;;
10387;SDS011;5240;51.128;4.566;2023-12-20T06:48:11;19.20;;;3.97;;
10387;SDS011;5240;51.128;4.566;2023-12-20T06:50:39;15.25;;;3.67;;
10387;SDS011;5240;51.128;4.566;2023-12-20T06:53:06;15.73;;;4.93;;
10387;SDS011;5240;51.128;4.566;2023-12-20T06:55:33;17.23;;;4.63;;
10387;SDS011;5240;51.128;4.566;2023-12-20T06:58:02;17.02;;;4.70;;
10387;SDS011;5240;51.128;4.566;2023-12-20T07:00:29;12.15;;;3.85;;
10387;SDS011;5240;51.128;4.566;2023-12-20T07:02:57;19.05;;;4.85;;
10387;SDS011;5240;51.128;4.566;2023-12-20T07:05:24;20.92;;;4.15;;
10387;SDS011;5240;51.128;4.566;2023-12-20T07:07:51;16.33;;;3.53;;
10387;SDS011;5240;51.128;4.566;2023-12-20T07:10:19;13.95;;;4.15;;
10387;SDS011;5240;51.128;4.566;2023-12-20T07:12:46;21.52;;;4.82;;
10387;SDS011;5240;51.128;4.566;2023-12-20T07:15:17;16.73;;;3.72;;
10387;SDS011;5240;51.128;4.566;2023-12-20T07:17:44;15.63;;;4.68;;
10387;SDS011;5240;51.128;4.566;2023-12-20T07:20:12;19.35;;;4.28;;
10387;SDS011;5240;51.128;4.566;2023-12-20T07:22:39;15.43;;;4.60;;
10387;SDS011;5240;51.128;4.566;2023-12-20T07:25:07;16.65;;;4.00;;
10387;SDS011;5240;51.128;4.566;2023-12-20T07:27:35;11.98;;;3.97;;
10387;SDS011;5240;51.128;4.566;2023-12-20T07:30:03;17.38;;;3.35;;
10387;SDS011;5240;51.128;4.566;2023-12-20T07:32:34;14.52;;;3.38;;
10387;SDS011;5240;51.128;4.566;2023-12-20T07:35:02;16.13;;;3.35;;
10387;SDS011;5240;51.128;4.566;2023-12-20T07:37:30;16.67;;;4.70;;
10387;SDS011;5240;51.128;4.566;2023-12-20T07:39:57;14.73;;;3.80;;
10387;SDS011;5240;51.128;4.566;2023-12-20T07:42:25;14.70;;;4.20;;
10387;SDS011;5240;51.128;4.566;2023-12-20T07:44:52;18.83;;;4.40;;
10387;SDS011;5240;51.128;4.566;2023-12-20T07:47:20;20.10;;;4.30;;
10387;SDS011;5240;51.128;4.566;2023-12-20T07:49:49;9.25;;;3.20;;
10387;SDS011;5240;51.128;4.566;2023-12-20T07:52:16;12.43;;;4.18;;
10387;SDS011;5240;51.128;4.566;2023-12-20T07:54:44;14.05;;;4.32;;
10387;SDS011;5240;51.128;4.566;2023-12-20T07:57:12;15.98;;;4.13;;
10387;SDS011;5240;51.128;4.566;2023-12-20T07:59:39;13.95;;;3.40;;
10387;SDS011;5240;51.128;4.566;2023-12-20T08:02:06;14.52;;;3.00;;
10387;SDS011;5240;51.128;4.566;2023-12-20T08:04:33;10.50;;;3.17;;
10387;SDS011;5240;51.128;4.566;2023-12-20T08:07:10;14.40;;;3.45;;
10387;SDS011;5240;51.128;4.566;2023-12-20T08:09:38;18.35;;;3.90;;
10387;SDS011;5240;51.128;4.566;2023-12-20T08:12:05;13.00;;;3.75;;
10387;SDS011;5240;51.128;4.566;2023-12-20T08:14:34;20.42;;;3.33;;
10387;SDS011;5240;51.128;4.566;2023-12-20T08:17:02;18.83;;;3.58;;
10387;SDS011;5240;51.128;4.566;2023-12-20T08:19:29;17.10;;;3.38;;
10387;SDS011;5240;51.128;4.566;2023-12-20T08:21:56;13.73;;;4.22;;
10387;SDS011;5240;51.128;4.566;2023-12-20T08:24:29;21.88;;;3.92;;
10387;SDS011;5240;51.128;4.566;2023-12-20T08:27:10;17.23;;;3.95;;
10387;SDS011;5240;51.128;4.566;2023-12-20T08:29:52;16.20;;;3.63;;
10387;SDS011;5240;51.128;4.566;2023-12-20T08:32:19;12.63;;;3.58;;
10387;SDS011;5240;51.128;4.566;2023-12-20T08:34:46;17.92;;;4.60;;
10387;SDS011;5240;51.128;4.566;2023-12-20T08:37:14;18.98;;;3.50;;
10387;SDS011;5240;51.128;4.566;2023-12-20T08:39:43;21.20;;;3.40;;
10387;SDS011;5240;51.128;4.566;2023-12-20T08:42:09;16.17;;;3.60;;
10387;SDS011;5240;51.128;4.566;2023-12-20T08:44:37;15.00;;;4.07;;
10387;SDS011;5240;51.128;4.566;2023-12-20T08:47:04;14.68;;;3.22;;
10387;SDS011;5240;51.128;4.566;2023-12-20T08:49:33;11.25;;;3.30;;
10387;SDS011;5240;51.128;4.566;2023-12-20T08:52:16;16.25;;;3.75;;
10387;SDS011;5240;51.128;4.566;2023-12-20T08:54:45;15.20;;;3.13;;
10387;SDS011;5240;51.128;4.566;2023-12-20T08:57:12;16.58;;;4.13;;
10387;SDS011;5240;51.128;4.566;2023-12-20T08:59:40;15.98;;;3.63;;
10387;SDS011;5240;51.128;4.566;2023-12-20T09:02:07;17.88;;;3.63;;
10387;SDS011;5240;51.128;4.566;2023-12-20T09:04:34;13.55;;;3.67;;
10387;SDS011;5240;51.128;4.566;2023-12-20T09:07:02;9.90;;;3.50;;
10387;SDS011;5240;51.128;4.566;2023-12-20T09:09:29;15.07;;;3.53;;
10387;SDS011;5240;51.128;4.566;2023-12-20T09:14:33;12.30;;;3.40;;
10387;SDS011;5240;51.128;4.566;2023-12-20T09:17:01;13.95;;;3.67;;
10387;SDS011;5240;51.128;4.566;2023-12-20T09:19:29;15.75;;;3.45;;
10387;SDS011;5240;51.128;4.566;2023-12-20T09:21:56;14.65;;;3.85;;
10387;SDS011;5240;51.128;4.566;2023-12-20T09:24:24;14.63;;;3.42;;
10387;SDS011;5240;51.128;4.566;2023-12-20T09:26:52;14.82;;;3.40;;
10387;SDS011;5240;51.128;4.566;2023-12-20T09:29:19;13.38;;;3.55;;
10387;SDS011;5240;51.128;4.566;2023-12-20T09:31:48;10.18;;;3.45;;
10387;SDS011;5240;51.128;4.566;2023-12-20T09:34:16;15.32;;;3.08;;
10387;SDS011;5240;51.128;4.566;2023-12-20T09:36:43;11.93;;;3.00;;
10387;SDS011;5240;51.128;4.566;2023-12-20T09:39:12;11.45;;;3.45;;
10387;SDS011;5240;51.128;4.566;2023-12-20T09:41:41;11.45;;;3.78;;
10387;SDS011;5240;51.128;4.566;2023-12-20T09:44:09;10.00;;;3.45;;
10387;SDS011;5240;51.128;4.566;2023-12-20T09:46:40;11.38;;;3.22;;
10387;SDS011;5240;51.128;4.566;2023-12-20T09:49:11;11.50;;;3.65;;
10387;SDS011;5240;51.128;4.566;2023-12-20T09:51:39;11.13;;;3.80;;
10387;SDS011;5240;51.128;4.566;2023-12-20T09:54:06;14.32;;;4.43;;
10387;SDS011;5240;51.128;4.566;2023-12-20T09:56:34;12.90;;;4.40;;
10387;SDS011;5240;51.128;4.566;2023-12-20T09:59:01;10.32;;;3.47;;
10387;SDS011;5240;51.128;4.566;2023-12-20T10:01:29;14.73;;;4.18;;
10387;SDS011;5240;51.128;4.566;2023-12-20T10:03:57;16.05;;;3.30;;
10387;SDS011;5240;51.128;4.566;2023-12-20T10:06:26;11.68;;;3.75;;
10387;SDS011;5240;51.128;4.566;2023-12-20T10:08:53;12.25;;;3.33;;
10387;SDS011;5240;51.128;4.566;2023-12-20T10:11:20;14.43;;;3.72;;
10387;SDS011;5240;51.128;4.566;2023-12-20T10:13:47;9.32;;;3.10;;
10387;SDS011;5240;51.128;4.566;2023-12-20T10:16:15;14.73;;;4.00;;
10387;SDS011;5240;51.128;4.566;2023-12-20T10:18:42;11.75;;;3.60;;
10387;SDS011;5240;51.128;4.566;2023-12-20T10:21:09;12.85;;;3.17;;
10387;SDS011;5240;51.128;4.566;2023-12-20T10:23:38;14.35;;;3.90;;
10387;SDS011;5240;51.128;4.566;2023-12-20T10:26:06;15.20;;;3.47;;
10387;SDS011;5240;51.128;4.566;2023-12-20T10:28:33;11.38;;;3.03;;
10387;SDS011;5240;51.128;4.566;2023-12-20T10:31:00;14.32;;;4.15;;
10387;SDS011;5240;51.128;4.566;2023-12-20T10:33:28;10.85;;;3.65;;
10387;SDS011;5240;51.128;4.566;2023-12-20T10:35:55;16.23;;;3.75;;
10387;SDS011;5240;51.128;4.566;2023-12-20T10:38:22;22.05;;;4.05;;
10387;SDS011;5240;51.128;4.566;2023-12-20T10:40:52;17.10;;;3.50;;
10387;SDS011;5240;51.128;4.566;2023-12-20T10:43:21;8.70;;;3.58;;
10387;SDS011;5240;51.128;4.566;2023-12-20T10:45:51;11.05;;;3.25;;
10387;SDS011;5240;51.128;4.566;2023-12-20T10:48:18;18.40;;;4.60;;
10387;SDS011;5240;51.128;4.566;2023-12-20T10:50:47;11.75;;;4.30;;
10387;SDS011;5240;51.128;4.566;2023-12-20T10:53:15;13.65;;;3.72;;
10387;SDS011;5240;51.128;4.566;2023-12-20T10:55:43;12.13;;;4.07;;
10387;SDS011;5240;51.128;4.566;2023-12-20T10:58:12;18.08;;;4.00;;
10387;SDS011;5240;51.128;4.566;2023-12-20T11:00:40;16.02;;;3.67;;
10387;SDS011;5240;51.128;4.566;2023-12-20T11:03:08;13.48;;;3.75;;
10387;SDS011;5240;51.128;4.566;2023-12-20T11:05:36;13.82;;;3.72;;
10387;SDS011;5240;51.128;4.566;2023-12-20T11:08:07;13.45;;;3.53;;
10387;SDS011;5240;51.128;4.566;2023-12-20T11:10:37;17.05;;;4.50;;
10387;SDS011;5240;51.128;4.566;2023-12-20T11:13:10;11.23;;;3.50;;
10387;SDS011;5240;51.128;4.566;2023-12-20T11:15:40;13.90;;;3.88;;
10387;SDS011;5240;51.128;4.566;2023-12-20T11:18:08;10.40;;;3.75;;
10387;SDS011;5240;51.128;4.566;2023-12-20T11:20:36;14.02;;;3.33;;
10387;SDS011;5240;51.128;4.566;2023-12-20T11:23:04;13.88;;;3.30;;
10387;SDS011;5240;51.128;4.566;2023-12-20T11:25:34;9.80;;;3.28;;
10387;SDS011;5240;51.128;4.566;2023-12-20T11:28:12;16.83;;;3.97;;
10387;SDS011;5240;51.128;4.566;2023-12-20T11:30:41;15.55;;;3.72;;
10387;SDS011;5240;51.128;4.566;2023-12-20T11:33:09;13.43;;;4.13;;
10387;SDS011;5240;51.128;4.566;2023-12-20T11:35:36;10.13;;;3.17;;
10387;SDS011;5240;51.128;4.566;2023-12-20T11:38:04;21.63;;;4.22;;
10387;SDS011;5240;51.128;4.566;2023-12-20T11:40:37;10.93;;;3.58;;
10387;SDS011;5240;51.128;4.566;2023-12-20T11:43:05;17.38;;;4.10;;
10387;SDS011;5240;51.128;4.566;2023-12-20T11:45:32;16.67;;;3.88;;
10387;SDS011;5240;51.128;4.566;2023-12-20T11:48:02;15.13;;;4.15;;
10387;SDS011;5240;51.128;4.566;2023-12-20T11:50:29;15.55;;;3.67;;
10387;SDS011;5240;51.128;4.566;2023-12-20T11:52:57;13.23;;;3.53;;
10387;SDS011;5240;51.128;4.566;2023-12-20T11:55:24;13.35;;;3.70;;
10387;SDS011;5240;51.128;4.566;2023-12-20T11:57:51;13.00;;;4.10;;
10387;SDS011;5240;51.128;4.566;2023-12-20T12:00:19;14.35;;;3.70;;
10387;SDS011;5240;51.128;4.566;2023-12-20T12:02:56;14.15;;;4.00;;
10387;SDS011;5240;51.128;4.566;2023-12-20T12:05:25;14.25;;;3.78;;
10387;SDS011;5240;51.128;4.566;2023-12-20T12:07:52;12.80;;;3.83;;
10387;SDS011;5240;51.128;4.566;2023-12-20T12:10:20;10.77;;;3.60;;
10387;SDS011;5240;51.128;4.566;2023-12-20T12:12:47;13.52;;;3.65;;
10387;SDS011;5240;51.128;4.566;2023-12-20T12:15:15;13.80;;;3.33;;
10387;SDS011;5240;51.128;4.566;2023-12-20T12:17:42;15.27;;;3.90;;
10387;SDS011;5240;51.128;4.566;2023-12-20T12:20:10;12.75;;;3.92;;
10387;SDS011;5240;51.128;4.566;2023-12-20T12:22:39;14.35;;;3.80;;
10387;SDS011;5240;51.128;4.566;2023-12-20T12:25:09;13.55;;;3.75;;
10387;SDS011;5240;51.128;4.566;2023-12-20T12:27:37;13.43;;;3.75;;
10387;SDS011;5240;51.128;4.566;2023-12-20T12:30:05;13.25;;;3.80;;
10387;SDS011;5240;51.128;4.566;2023-12-20T12:32:33;17.00;;;4.07;;
10387;SDS011;5240;51.128;4.566;2023-12-20T12:35:02;15.75;;;3.55;;
10387;SDS011;5240;51.128;4.566;2023-12-20T12:37:31;14.48;;;3.78;;
10387;SDS011;5240;51.128;4.566;2023-12-20T12:40:00;14.25;;;3.67;;
10387;SDS011;5240;51.128;4.566;2023-12-20T12:42:27;13.10;;;3.95;;
10387;SDS011;5240;51.128;4.566;2023-12-20T12:44:54;15.07;;;3.95;;
10387;SDS011;5240;51.128;4.566;2023-12-20T12:47:22;15.27;;;3.72;;
10387;SDS011;5240;51.128;4.566;2023-12-20T12:49:49;16.30;;;4.03;;
10387;SDS011;5240;51.128;4.566;2023-12-20T12:52:18;10.45;;;3.72;;
10387;SDS011;5240;51.128;4.566;2023-12-20T12:54:45;14.13;;;4.00;;
10387;SDS011;5240;51.128;4.566;2023-12-20T12:57:15;13.65;;;3.70;;
10387;SDS011;5240;51.128;4.566;2023-12-20T12:59:42;14.82;;;4.05;;
10387;SDS011;5240;51.128;4.566;2023-12-20T13:02:11;11.07;;;3.42;;
10387;SDS011;5240;51.128;4.566;2023-12-20T13:04:38;10.15;;;3.28;;
10387;SDS011;5240;51.128;4.566;2023-12-20T13:07:06;9.43;;;3.10;;
10387;SDS011;5240;51.128;4.566;2023-12-20T13:09:35;19.20;;;4.97;;
10387;SDS011;5240;51.128;4.566;2023-12-20T13:12:03;12.00;;;3.45;;
10387;SDS011;5240;51.128;4.566;2023-12-20T13:14:33;13.13;;;3.35;;
10387;SDS011;5240;51.128;4.566;2023-12-20T13:17:02;12.70;;;3.53;;
10387;SDS011;5240;51.128;4.566;2023-12-20T13:19:30;16.77;;;3.85;;
10387;SDS011;5240;51.128;4.566;2023-12-20T13:21:57;14.38;;;4.78;;
10387;SDS011;5240;51.128;4.566;2023-12-20T13:24:24;12.93;;;3.65;;
10387;SDS011;5240;51.128;4.566;2023-12-20T13:26:51;15.63;;;4.25;;
10387;SDS011;5240;51.128;4.566;2023-12-20T13:29:19;13.75;;;4.03;;
10387;SDS011;5240;51.128;4.566;2023-12-20T13:31:47;14.13;;;3.92;;
10387;SDS011;5240;51.128;4.566;2023-12-20T13:34:14;13.73;;;4.40;;
10387;SDS011;5240;51.128;4.566;2023-12-20T13:36:42;11.20;;;4.38;;
10387;SDS011;5240;51.128;4.566;2023-12-20T13:39:12;10.05;;;3.22;;
10387;SDS011;5240;51.128;4.566;2023-12-20T13:41:39;13.50;;;3.75;;
10387;SDS011;5240;51.128;4.566;2023-12-20T13:44:07;12.63;;;4.07;;
10387;SDS011;5240;51.128;4.566;2023-12-20T13:46:34;17.30;;;4.03;;
10387;SDS011;5240;51.128;4.566;2023-12-20T13:49:03;12.38;;;3.97;;
10387;SDS011;5240;51.128;4.566;2023-12-20T13:51:31;12.15;;;3.38;;
10387;SDS011;5240;51.128;4.566;2023-12-20T13:53:58;12.25;;;3.63;;
10387;SDS011;5240;51.128;4.566;2023-12-20T13:56:25;17.23;;;4.10;;
10387;SDS011;5240;51.128;4.566;2023-12-20T13:58:52;13.90;;;3.60;;
10387;SDS011;5240;51.128;4.566;2023-12-20T14:01:20;19.30;;;4.25;;
10387;SDS011;5240;51.128;4.566;2023-12-20T14:03:47;11.63;;;3.85;;
10387;SDS011;5240;51.128;4.566;2023-12-20T14:06:16;10.40;;;3.28;;
10387;SDS011;5240;51.128;4.566;2023-12-20T14:08:44;13.98;;;4.07;;
10387;SDS011;5240;51.128;4.566;2023-12-20T14:11:11;11.98;;;3.17;;
10387;SDS011;5240;51.128;4.566;2023-12-20T14:13:40;16.38;;;4.25;;
10387;SDS011;5240;51.128;4.566;2023-12-20T14:16:08;22.75;;;7.75;;
10387;SDS011;5240;51.128;4.566;2023-12-20T14:18:36;15.13;;;4.13;;
10387;SDS011;5240;51.128;4.566;2023-12-20T14:21:03;19.25;;;4.43;;
10387;SDS011;5240;51.128;4.566;2023-12-20T14:23:32;13.32;;;3.67;;
10387;SDS011;5240;51.128;4.566;2023-12-20T14:26:00;13.98;;;3.45;;
10387;SDS011;5240;51.128;4.566;2023-12-20T14:28:27;12.00;;;3.35;;
10387;SDS011;5240;51.128;4.566;2023-12-20T14:30:54;14.23;;;3.83;;
10387;SDS011;5240;51.128;4.566;2023-12-20T14:33:22;17.27;;;3.95;;
10387;SDS011;5240;51.128;4.566;2023-12-20T14:35:50;16.40;;;4.43;;
10387;SDS011;5240;51.128;4.566;2023-12-20T14:38:17;17.30;;;4.15;;
10387;SDS011;5240;51.128;4.566;2023-12-20T14:40:46;12.02;;;4.07;;
10387;SDS011;5240;51.128;4.566;2023-12-20T14:43:13;12.25;;;3.75;;
10387;SDS011;5240;51.128;4.566;2023-12-20T14:45:41;13.38;;;3.63;;
10387;SDS011;5240;51.128;4.566;2023-12-20T14:48:08;13.80;;;4.25;;
10387;SDS011;5240;51.128;4.566;2023-12-20T14:50:36;12.00;;;3.80;;
10387;SDS011;5240;51.128;4.566;2023-12-20T14:53:03;14.98;;;3.65;;
10387;SDS011;5240;51.128;4.566;2023-12-20T14:55:30;12.52;;;3.42;;